Qian Gorlos, China
Current Conditions -  °F | °C
As of 12:00 AM on Saturday 25 Oct 2014 (Local Time) from ZYHB Reporting Station
Overcast Overcast  
Wind Chill: 40°   Ceiling: 2600
Heat Index: 43°   Visibility: 4mi
Dew Point: 39°   Wind: 4mph
Humidity: 87%   Direction: 340°NNW
Pressure: 29.83"   Gusts: NA
Location:  45.12°N, 124.83°E
Report Text: ZYHB 241600Z 34002MPS 7000 OVC026 06/04 Q1010 NOSIG
Loading
Personal Weather Stations






























Interactive Weather Map
Tropical Storm Tracking
New forecast layout! Learn more

10-Day Weather Forecast

Advertisements
Track Severe Weather on mobile